Time;durP1;ratioP1;P1;durP2;ratioP2;P2;SDS_P1;SDS_P2;PMS_P1;PMS_P2;Temp;Humidity;BMP_temperature;BMP_pressure;BME280_temperature;BME280_humidity;BME280_pressure;Samples;Min_cycle;Max_cycle;Signal;HPM_P1;HPM_P2
2021/04/08 00:01:30;;;;;;;;;;;;;;;17.62;27.23;100504.31;4414890;32;19958;-51
2021/04/08 00:03:55;;;;;;;;;;;;;;;17.61;27.21;100503.44;4414066;32;19958;-55
2021/04/08 00:06:21;;;;;;;;;;;;;;;17.62;27.17;100506.94;4414638;32;19986;-48
2021/04/08 00:08:47;;;;;;;;;;;;;;;17.66;27.11;100504.44;4413856;32;19954;-51
2021/04/08 00:11:13;;;;;;;;;;;;;;;17.65;27.13;100500.00;4410997;32;20385;-52
2021/04/08 00:13:39;;;;;;;;;;;;;;;17.60;27.17;100506.00;4415234;32;19973;-51
2021/04/08 00:16:05;;;;;;;;;;;;;;;17.65;27.09;100496.47;4414213;32;19980;-49
2021/04/08 00:18:31;;;;;;;;;;;;;;;17.66;27.13;100498.28;4413756;32;20420;-51
2021/04/08 00:20:57;;;;;;;;;;;;;;;17.59;27.16;100497.22;4414792;32;19987;-50
2021/04/08 00:23:23;;;;;;;;;;;;;;;17.64;27.15;100492.97;4413853;32;20036;-54
2021/04/08 00:25:48;;;;;;;;;;;;;;;17.61;27.12;100500.78;4414049;32;19954;-49
2021/04/08 00:28:14;;;;;;;;;;;;;;;17.61;27.17;100506.06;4413854;32;20005;-53
2021/04/08 00:30:43;;;;;;;;;;;;;;;17.51;27.29;100509.31;4414777;32;20053;-51
2021/04/08 00:33:09;;;;;;;;;;;;;;;17.57;27.14;100506.81;4413730;32;19957;-51
2021/04/08 00:35:35;;;;;;;;;;;;;;;17.56;27.17;100510.31;4414235;32;19958;-53
2021/04/08 00:38:01;;;;;;;;;;;;;;;17.55;27.17;100503.25;4414320;32;20012;-50
2021/04/08 00:40:27;;;;;;;;;;;;;;;17.56;27.17;100505.03;4413713;32;19950;-48
2021/04/08 00:42:52;;;;;;;;;;;;;;;17.55;27.18;100511.16;4414760;32;20319;-50
2021/04/08 00:45:18;;;;;;;;;;;;;;;17.58;27.16;100510.34;4413539;32;19968;-51
2021/04/08 00:47:44;;;;;;;;;;;;;;;17.58;27.12;100513.84;4413705;32;19988;-53
2021/04/08 00:50:10;;;;;;;;;;;;;;;17.55;27.15;100516.41;4414155;32;19986;-49
2021/04/08 00:52:36;;;;;;;;;;;;;;;17.51;27.25;100512.81;4414709;32;20620;-53
2021/04/08 00:55:02;;;;;;;;;;;;;;;17.53;27.17;100507.59;4413997;32;19958;-53
2021/04/08 00:57:28;;;;;;;;;;;;;;;17.57;27.16;100504.19;4413949;32;19985;-51
2021/04/08 00:59:54;;;;;;;;;;;;;;;17.59;27.08;100512.13;4414576;32;20041;-52
2021/04/08 01:02:20;;;;;;;;;;;;;;;17.60;27.09;100511.28;4414339;32;20664;-51
2021/04/08 01:04:46;;;;;;;;;;;;;;;17.54;27.13;100509.38;4412040;32;20379;-53
2021/04/08 01:07:12;;;;;;;;;;;;;;;17.54;27.13;100514.63;4414802;32;19990;-47
2021/04/08 01:09:38;;;;;;;;;;;;;;;17.58;27.04;100519.13;4415999;32;19950;-48
2021/04/08 01:12:04;;;;;;;;;;;;;;;17.52;27.12;100519.84;4417063;32;19954;-50
2021/04/08 01:14:30;;;;;;;;;;;;;;;17.41;27.29;100510.81;4417850;32;20011;-50
2021/04/08 01:16:56;;;;;;;;;;;;;;;17.49;27.23;100516.28;4417488;32;19969;-55
2021/04/08 01:19:22;;;;;;;;;;;;;;;17.52;27.13;100519.84;4415980;32;20000;-51
2021/04/08 01:21:47;;;;;;;;;;;;;;;17.52;27.10;100522.50;4416140;32;19958;-51
2021/04/08 01:24:13;;;;;;;;;;;;;;;17.49;27.10;100526.81;4417108;32;19954;-50
2021/04/08 01:26:40;;;;;;;;;;;;;;;17.44;27.19;100534.56;4417310;32;19958;-50
2021/04/08 01:29:05;;;;;;;;;;;;;;;17.44;27.18;100531.03;4416904;32;20012;-53
2021/04/08 01:31:32;;;;;;;;;;;;;;;17.52;27.08;100534.78;4415524;32;19958;-52
2021/04/08 01:33:57;;;;;;;;;;;;;;;17.45;27.15;100527.56;4415688;32;19992;-50
2021/04/08 01:36:23;;;;;;;;;;;;;;;17.45;27.23;100532.81;4416963;32;20037;-49
2021/04/08 01:38:49;;;;;;;;;;;;;;;17.45;27.17;100532.81;4415646;32;20001;-49
2021/04/08 01:41:15;;;;;;;;;;;;;;;17.49;27.12;100534.72;4416243;32;19993;-51
2021/04/08 01:43:41;;;;;;;;;;;;;;;17.45;27.15;100535.44;4415903;32;20380;-52
2021/04/08 01:46:07;;;;;;;;;;;;;;;17.45;27.14;100532.81;4416153;32;19966;-48
2021/04/08 01:48:34;;;;;;;;;;;;;;;17.50;27.09;100534.72;4416119;32;19993;-52
2021/04/08 01:50:59;;;;;;;;;;;;;;;17.44;27.13;100544.22;4417284;32;19958;-48
2021/04/08 01:53:25;;;;;;;;;;;;;;;17.39;27.21;100542.34;4416468;32;19972;-47
2021/04/08 01:55:51;;;;;;;;;;;;;;;17.42;27.11;100547.69;4416563;32;19997;-49
2021/04/08 01:58:17;;;;;;;;;;;;;;;17.52;27.01;100551.44;4415782;32;19997;-50
2021/04/08 02:00:43;;;;;;;;;;;;;;;17.48;27.06;100554.00;4416305;32;19973;-49
2021/04/08 02:03:09;;;;;;;;;;;;;;;17.49;27.07;100548.75;4416016;32;19950;-51
2021/04/08 02:05:35;;;;;;;;;;;;;;;17.49;27.06;100550.50;4416133;32;19969;-48
2021/04/08 02:08:01;;;;;;;;;;;;;;;17.48;27.08;100561.88;4416547;32;19981;-51
2021/04/08 02:10:27;;;;;;;;;;;;;;;17.48;27.10;100559.25;4399069;32;20667;-53
2021/04/08 02:12:53;;;;;;;;;;;;;;;17.44;27.11;100554.72;4400690;32;19966;-51
2021/04/08 02:15:19;;;;;;;;;;;;;;;17.38;27.21;100556.38;4413175;32;19990;-54
2021/04/08 02:17:45;;;;;;;;;;;;;;;17.39;27.16;100554.59;4416104;32;19950;-50
2021/04/08 02:20:11;;;;;;;;;;;;;;;17.40;27.12;100561.66;4416346;32;19994;-48
2021/04/08 02:22:36;;;;;;;;;;;;;;;17.39;27.19;100563.41;4416411;32;19995;-51
2021/04/08 02:25:02;;;;;;;;;;;;;;;17.41;27.20;100564.34;4416154;32;19991;-54
2021/04/08 02:27:29;;;;;;;;;;;;;;;17.40;27.13;100562.56;4400983;32;20354;-50
2021/04/08 02:29:55;;;;;;;;;;;;;;;17.44;27.10;100570.53;4411425;32;19962;-51
2021/04/08 02:32:21;;;;;;;;;;;;;;;17.47;27.04;100566.25;4414263;32;20355;-53
2021/04/08 02:34:46;;;;;;;;;;;;;;;17.48;27.00;100568.03;4415637;32;19953;-48
2021/04/08 02:37:12;;;;;;;;;;;;;;;17.39;27.15;100570.41;4415059;32;20005;-49
2021/04/08 02:39:38;;;;;;;;;;;;;;;17.41;27.11;100571.38;4416664;32;19953;-48
2021/04/08 02:42:04;;;;;;;;;;;;;;;17.35;27.17;100566.81;4412674;32;19994;-49
2021/04/08 02:44:30;;;;;;;;;;;;;;;17.38;27.13;100569.53;4416068;32;20339;-50
2021/04/08 02:46:56;;;;;;;;;;;;;;;17.39;27.13;100567.75;4414770;32;19962;-54
2021/04/08 02:49:22;;;;;;;;;;;;;;;17.32;27.23;100577.22;4414522;32;19954;-55
2021/04/08 02:51:48;;;;;;;;;;;;;;;17.40;27.08;100567.81;4416830;32;19954;-48
2021/04/08 02:54:14;;;;;;;;;;;;;;;17.42;27.08;100566.13;4416523;32;19958;-52
2021/04/08 02:56:40;;;;;;;;;;;;;;;17.39;27.09;100576.56;4416186;32;20004;-50
2021/04/08 02:59:05;;;;;;;;;;;;;;;17.40;27.13;100580.06;4415415;32;19958;-53
2021/04/08 03:01:31;;;;;;;;;;;;;;;17.37;27.16;100585.25;4416394;32;19962;-53
2021/04/08 03:03:57;;;;;;;;;;;;;;;17.37;27.10;100575.66;4416099;32;19980;-49
2021/04/08 03:06:23;;;;;;;;;;;;;;;17.39;27.04;100579.19;4415539;32;20076;-52
2021/04/08 03:08:49;;;;;;;;;;;;;;;17.37;27.18;100596.69;4416408;32;19951;-50
2021/04/08 03:11:15;;;;;;;;;;;;;;;17.42;27.07;100584.56;4414769;32;20357;-49
2021/04/08 03:13:41;;;;;;;;;;;;;;;17.36;27.17;100594.91;4415776;32;20057;-51
2021/04/08 03:16:07;;;;;;;;;;;;;;;17.32;27.18;100586.88;4415631;32;20402;-51
2021/04/08 03:18:32;;;;;;;;;;;;;;;17.33;27.19;100594.81;4415014;32;19975;-50
2021/04/08 03:20:58;;;;;;;;;;;;;;;17.40;27.06;100596.78;4416111;32;19960;-53
2021/04/08 03:23:24;;;;;;;;;;;;;;;17.34;27.13;100596.59;4415009;32;19973;-53
2021/04/08 03:25:50;;;;;;;;;;;;;;;17.32;27.15;100598.28;4415574;32;19957;-49
2021/04/08 03:28:16;;;;;;;;;;;;;;;17.34;27.18;100607.13;4415477;32;19955;-51
2021/04/08 03:30:42;;;;;;;;;;;;;;;17.34;27.19;100604.50;4415275;32;20037;-48
2021/04/08 03:33:08;;;;;;;;;;;;;;;17.38;27.14;100609.00;4413702;32;19954;-48
2021/04/08 03:35:34;;;;;;;;;;;;;;;17.35;27.18;100597.50;4415022;32;21173;-49
2021/04/08 03:38:00;;;;;;;;;;;;;;;17.38;27.11;100603.75;4415176;32;19958;-50
2021/04/08 03:40:26;;;;;;;;;;;;;;;17.32;27.18;100608.81;4413969;32;19976;-49
2021/04/08 03:42:52;;;;;;;;;;;;;;;17.26;27.25;100612.16;4415306;32;20415;-51
2021/04/08 03:45:17;;;;;;;;;;;;;;;17.27;27.29;100611.31;4415591;32;19949;-48
2021/04/08 03:47:43;;;;;;;;;;;;;;;17.31;27.17;100612.31;4414146;32;20649;-53
2021/04/08 03:50:09;;;;;;;;;;;;;;;17.34;27.17;100611.50;4415601;32;19980;-51
2021/04/08 03:52:35;;;;;;;;;;;;;;;17.21;27.36;100610.25;4414813;32;19980;-53
2021/04/08 03:55:01;;;;;;;;;;;;;;;17.27;27.23;100610.44;4414802;32;20004;-49
2021/04/08 03:57:27;;;;;;;;;;;;;;;17.32;27.24;100618.47;4413547;32;19979;-55
2021/04/08 03:59:53;;;;;;;;;;;;;;;17.31;27.24;100612.31;4414984;32;20034;-51
2021/04/08 04:02:19;;;;;;;;;;;;;;;17.25;27.34;100622.69;4415559;32;20339;-53
2021/04/08 04:04:45;;;;;;;;;;;;;;;17.32;27.22;100624.63;4415455;32;19958;-53
2021/04/08 04:07:10;;;;;;;;;;;;;;;17.31;27.24;100624.59;4414992;32;20017;-51
2021/04/08 04:09:37;;;;;;;;;;;;;;;17.35;27.18;100627.37;4415534;32;19962;-53
2021/04/08 04:12:03;;;;;;;;;;;;;;;17.32;27.19;100621.97;4415717;32;20011;-49
2021/04/08 04:14:28;;;;;;;;;;;;;;;17.33;27.23;100623.78;4415497;32;19950;-50
2021/04/08 04:16:55;;;;;;;;;;;;;;;17.30;27.26;100631.59;4414789;32;19957;-53
2021/04/08 04:19:21;;;;;;;;;;;;;;;17.37;27.16;100630.94;4414719;32;19985;-51
2021/04/08 04:21:47;;;;;;;;;;;;;;;17.33;27.26;100636.94;4415687;32;19993;-50
2021/04/08 04:24:12;;;;;;;;;;;;;;;17.31;27.23;100636.00;4415101;32;20000;-51
2021/04/08 04:26:38;;;;;;;;;;;;;;;17.29;27.28;100635.06;4414353;32;20351;-53
2021/04/08 04:29:04;;;;;;;;;;;;;;;17.35;27.23;100645.78;4412729;32;19957;-51
2021/04/08 04:31:30;;;;;;;;;;;;;;;17.26;27.39;100648.16;4413516;32;19979;-54
2021/04/08 04:33:56;;;;;;;;;;;;;;;17.22;27.42;100648.88;4414512;32;19993;-54
2021/04/08 04:36:22;;;;;;;;;;;;;;;17.21;27.40;100648.00;4400132;32;19958;-51
2021/04/08 04:38:48;;;;;;;;;;;;;;;17.24;27.40;100650.72;4408723;32;20353;-52
2021/04/08 04:41:14;;;;;;;;;;;;;;;17.30;27.32;100650.00;4414733;32;19990;-48
2021/04/08 04:43:40;;;;;;;;;;;;;;;17.21;27.48;100657.63;4416362;32;19966;-48
2021/04/08 04:46:06;;;;;;;;;;;;;;;17.26;27.38;100656.03;4417693;32;20387;-53
2021/04/08 04:48:32;;;;;;;;;;;;;;;17.21;27.43;100662.88;4417118;32;19962;-51
2021/04/08 04:50:58;;;;;;;;;;;;;;;17.23;27.40;100655.97;4417017;32;20598;-50
2021/04/08 04:53:24;;;;;;;;;;;;;;;17.18;27.42;100668.06;4416074;32;19955;-54
2021/04/08 04:55:49;;;;;;;;;;;;;;;17.24;27.34;100668.28;4416807;32;20059;-53
2021/04/08 04:58:15;;;;;;;;;;;;;;;17.28;27.35;100667.50;4415541;32;20032;-51
2021/04/08 05:00:41;;;;;;;;;;;;;;;17.28;27.33;100667.50;4416055;32;20028;-52
2021/04/08 05:03:07;;;;;;;;;;;;;;;17.23;27.47;100671.75;4409779;32;19954;-51
2021/04/08 05:05:33;;;;;;;;;;;;;;;17.13;27.51;100668.84;4406692;32;19974;-56
2021/04/08 05:07:59;;;;;;;;;;;;;;;17.24;27.42;100666.50;4399053;32;20331;-52
2021/04/08 05:10:25;;;;;;;;;;;;;;;17.19;27.47;100669.84;4408885;32;19958;-50
2021/04/08 05:12:51;;;;;;;;;;;;;;;17.13;27.59;100674.09;4417290;32;19996;-52
2021/04/08 05:15:16;;;;;;;;;;;;;;;17.13;27.58;100674.09;4416634;32;19984;-53
2021/04/08 05:17:42;;;;;;;;;;;;;;;17.23;27.50;100674.37;4415944;32;20386;-49
2021/04/08 05:20:08;;;;;;;;;;;;;;;17.12;27.67;100680.22;4415211;32;19953;-55
2021/04/08 05:22:34;;;;;;;;;;;;;;;17.11;27.62;100686.31;4400407;32;19946;-53
2021/04/08 05:25:00;;;;;;;;;;;;;;;17.11;27.62;100688.94;4400251;32;19952;-49
2021/04/08 05:27:26;;;;;;;;;;;;;;;17.20;27.47;100687.41;4398723;32;19954;-50
2021/04/08 05:29:52;;;;;;;;;;;;;;;17.20;27.54;100693.59;4395460;32;20002;-54
2021/04/08 05:32:18;;;;;;;;;;;;;;;17.18;27.49;100690.03;4400516;32;19988;-54
2021/04/08 05:34:44;;;;;;;;;;;;;;;17.21;27.49;100690.12;4399767;32;19994;-53
2021/04/08 05:37:10;;;;;;;;;;;;;;;17.19;27.54;100697.06;4399381;32;19996;-48
2021/04/08 05:39:36;;;;;;;;;;;;;;;17.24;27.52;100697.22;4399564;32;19994;-54
2021/04/08 05:42:02;;;;;;;;;;;;;;;17.22;27.53;100704.16;4399542;32;19962;-55
2021/04/08 05:44:28;;;;;;;;;;;;;;;17.28;27.47;100710.53;4399020;32;20019;-52
2021/04/08 05:46:54;;;;;;;;;;;;;;;17.21;27.55;100705.00;4399280;32;19972;-51
2021/04/08 05:49:20;;;;;;;;;;;;;;;17.17;27.63;100714.56;4385468;32;19985;-50
2021/04/08 05:51:46;;;;;;;;;;;;;;;17.14;27.59;100706.53;4401582;32;19998;-49
2021/04/08 05:54:11;;;;;;;;;;;;;;;17.13;27.62;100716.19;4413429;32;19997;-49
2021/04/08 05:56:38;;;;;;;;;;;;;;;17.20;27.56;100717.28;4415299;32;19958;-53
2021/04/08 05:59:03;;;;;;;;;;;;;;;17.16;27.63;100725.03;4413327;32;19957;-53
2021/04/08 06:01:29;;;;;;;;;;;;;;;17.11;27.81;100719.63;4414696;32;20001;-52
2021/04/08 06:03:55;;;;;;;;;;;;;;;17.23;27.66;100732.28;4415709;32;19962;-57
2021/04/08 06:06:21;;;;;;;;;;;;;;;17.23;27.69;100729.66;4414276;32;20000;-57
2021/04/08 06:08:47;;;;;;;;;;;;;;;17.29;27.50;100729.81;4414320;32;20318;-49
2021/04/08 06:11:13;;;;;;;;;;;;;;;17.30;27.62;100736.88;4409674;32;19955;-55
2021/04/08 06:13:39;;;;;;;;;;;;;;;17.26;27.64;100740.25;4414140;32;20422;-55
2021/04/08 06:16:05;;;;;;;;;;;;;;;17.30;27.55;100742.13;4414162;32;19978;-57
2021/04/08 06:18:31;;;;;;;;;;;;;;;17.31;27.50;100738.66;4414620;32;19953;-57
2021/04/08 06:20:57;;;;;;;;;;;;;;;17.26;27.67;100756.06;4414307;32;19946;-54
2021/04/08 06:23:23;;;;;;;;;;;;;;;17.19;27.71;100744.44;4414933;32;20194;-56
2021/04/08 06:25:50;;;;;;;;;;;;;;;17.26;27.63;100751.66;4415111;32;20005;-57
2021/04/08 06:28:16;;;;;;;;;;;;;;;17.28;27.66;100754.38;4412993;32;19995;-56
2021/04/08 06:30:45;;;;;;;;;;;;;;;17.24;27.67;100756.00;4413852;32;19993;-55
2021/04/08 06:33:11;;;;;;;;;;;;;;;17.33;27.57;100752.75;4413373;32;20035;-53
2021/04/08 06:35:37;;;;;;;;;;;;;;;17.33;27.71;100765.03;4412691;32;19961;-55
2021/04/08 06:38:03;;;;;;;;;;;;;;;17.33;27.66;100758.03;4413193;32;19979;-53
2021/04/08 06:40:29;;;;;;;;;;;;;;;17.32;27.71;100750.09;4407310;32;20016;-56
2021/04/08 06:42:55;;;;;;;;;;;;;;;17.33;27.69;100749.25;4413952;32;19962;-54
2021/04/08 06:45:21;;;;;;;;;;;;;;;17.32;27.80;100760.62;4412517;32;20069;-53
2021/04/08 06:47:47;;;;;;;;;;;;;;;17.29;27.86;100766.69;4412247;32;19966;-53
2021/04/08 06:50:13;;;;;;;;;;;;;;;17.33;27.75;100760.66;4412600;32;19962;-55
2021/04/08 06:52:39;;;;;;;;;;;;;;;17.31;27.88;100769.37;4413895;32;19954;-56
2021/04/08 06:55:05;;;;;;;;;;;;;;;17.33;27.84;100768.53;4413717;32;20027;-51
2021/04/08 06:57:31;;;;;;;;;;;;;;;17.36;27.88;100763.41;4413199;32;19964;-51
2021/04/08 06:59:57;;;;;;;;;;;;;;;17.37;27.88;100770.47;4413236;32;20398;-54
2021/04/08 07:02:23;;;;;;;;;;;;;;;17.28;28.13;100775.41;4413770;32;20041;-54
2021/04/08 07:04:49;;;;;;;;;;;;;;;17.35;27.93;100766.88;4406858;32;19958;-56
2021/04/08 07:07:15;;;;;;;;;;;;;;;17.34;27.91;100775.59;4397657;32;19973;-55
2021/04/08 07:09:41;;;;;;;;;;;;;;;16.92;28.71;100776.00;4397733;32;20500;-52
2021/04/08 07:12:07;;;;;;;;;;;;;;;17.17;28.30;100776.81;4404649;32;19958;-53
2021/04/08 07:14:33;;;;;;;;;;;;;;;17.34;28.00;100777.34;4413378;32;20016;-51
2021/04/08 07:16:59;;;;;;;;;;;;;;;17.36;27.94;100773.94;4413842;32;20031;-50
2021/04/08 07:19:24;;;;;;;;;;;;;;;17.34;27.97;100780.88;4413324;32;20369;-50
2021/04/08 07:21:50;;;;;;;;;;;;;;;17.37;27.95;100780.06;4413704;32;20335;-55
2021/04/08 07:24:16;;;;;;;;;;;;;;;17.37;27.99;100777.44;4413315;32;19956;-51
2021/04/08 07:26:42;;;;;;;;;;;;;;;17.45;27.87;100788.22;4413327;32;19965;-52
2021/04/08 07:29:08;;;;;;;;;;;;;;;17.40;27.95;100780.16;4411039;32;20001;-50
2021/04/08 07:31:34;;;;;;;;;;;;;;;17.37;28.01;100786.25;4413495;32;19958;-53
2021/04/08 07:34:00;;;;;;;;;;;;;;;17.39;28.04;100789.81;4413502;32;20014;-54
2021/04/08 07:36:26;;;;;;;;;;;;;;;17.39;28.00;100794.19;4412691;32;19962;-53
2021/04/08 07:38:52;;;;;;;;;;;;;;;17.30;28.18;100784.25;4413840;32;19961;-53
2021/04/08 07:41:18;;;;;;;;;;;;;;;17.30;28.18;100784.25;4413342;32;19981;-55
2021/04/08 07:43:45;;;;;;;;;;;;;;;17.25;28.28;100792.00;4412307;32;19988;-56
2021/04/08 07:46:10;;;;;;;;;;;;;;;17.25;28.25;100791.12;4412611;32;19954;-56
2021/04/08 07:48:37;;;;;;;;;;;;;;;17.25;28.27;100799.03;4407955;32;19968;-55
2021/04/08 07:51:02;;;;;;;;;;;;;;;17.21;28.35;100794.47;4412486;32;20028;-52
2021/04/08 07:53:28;;;;;;;;;;;;;;;17.27;28.36;100792.06;4412619;32;21391;-52
2021/04/08 07:55:54;;;;;;;;;;;;;;;17.27;28.46;100800.84;4412813;32;19980;-51
2021/04/08 07:58:20;;;;;;;;;;;;;;;17.44;28.29;100796.97;4412119;32;19958;-50
2021/04/08 08:00:46;;;;;;;;;;;;;;;17.32;28.38;100798.34;4412093;32;19962;-47
2021/04/08 08:03:12;;;;;;;;;;;;;;;17.33;28.41;100804.53;4413137;32;19958;-49
2021/04/08 08:05:39;;;;;;;;;;;;;;;17.27;28.62;100805.22;4412125;32;19954;-50
2021/04/08 08:08:05;;;;;;;;;;;;;;;17.49;28.23;100808.53;4411274;32;19983;-47
2021/04/08 08:10:31;;;;;;;;;;;;;;;17.48;28.25;100809.41;4412550;32;20978;-51
2021/04/08 08:12:56;;;;;;;;;;;;;;;17.59;28.12;100810.59;4411458;32;19959;-50
2021/04/08 08:15:22;;;;;;;;;;;;;;;17.53;28.29;100813.97;4412508;32;20021;-52
2021/04/08 08:17:48;;;;;;;;;;;;;;;17.54;28.27;100814.84;4408085;32;19987;-49
2021/04/08 08:20:14;;;;;;;;;;;;;;;17.53;28.36;100813.06;4414602;32;20334;-51
2021/04/08 08:22:40;;;;;;;;;;;;;;;17.67;28.24;100819.63;4416552;32;20016;-52
2021/04/08 08:25:06;;;;;;;;;;;;;;;17.20;28.94;100816.37;4415325;32;19973;-48
2021/04/08 08:27:32;;;;;;;;;;;;;;;17.58;28.41;100824.59;4415338;32;20298;-55
2021/04/08 08:29:58;;;;;;;;;;;;;;;17.70;28.17;100817.09;4415344;32;19976;-50
2021/04/08 08:32:24;;;;;;;;;;;;;;;17.79;28.04;100815.59;4416024;32;19960;-54
2021/04/08 08:34:50;;;;;;;;;;;;;;;17.79;28.07;100820.84;4415846;32;19994;-49
2021/04/08 08:37:17;;;;;;;;;;;;;;;17.32;28.79;100824.69;4416450;32;19995;-46
2021/04/08 08:39:43;;;;;;;;;;;;;;;17.38;28.75;100822.25;4416638;32;19969;-55
2021/04/08 08:42:09;;;;;;;;;;;;;;;17.60;28.46;100819.41;4416943;32;19988;-51
2021/04/08 08:44:35;;;;;;;;;;;;;;;17.46;28.72;100821.59;4413770;32;19997;-54
2021/04/08 08:47:01;;;;;;;;;;;;;;;17.64;28.61;100827.44;4414271;32;20022;-54
2021/04/08 08:49:27;;;;;;;;;;;;;;;17.57;28.58;100828.09;4414838;32;19995;-57
2021/04/08 08:51:53;;;;;;;;;;;;;;;17.42;28.80;100824.13;4402072;32;20768;-46
2021/04/08 08:54:18;;;;;;;;;;;;;;;17.59;28.59;100829.03;4399832;32;19996;-49
2021/04/08 08:56:44;;;;;;;;;;;;;;;17.68;28.48;100829.31;4401179;32;20012;-49
2021/04/08 08:59:10;;;;;;;;;;;;;;;17.60;28.60;100830.84;4401433;32;20291;-49
2021/04/08 09:01:36;;;;;;;;;;;;;;;17.80;28.32;100835.81;4400800;32;19992;-52
2021/04/08 09:04:02;;;;;;;;;;;;;;;17.94;28.10;100831.84;4400827;32;19962;-49
2021/04/08 09:06:28;;;;;;;;;;;;;;;18.03;27.99;100833.00;4398969;32;19985;-54
2021/04/08 09:09:00;;;;;;;;;;;;;;;18.12;27.84;100833.28;4399139;32;19962;-53
2021/04/08 09:11:29;;;;;;;;;;;;;;;18.18;27.83;100833.44;4399526;32;20325;-51
2021/04/08 09:13:55;;;;;;;;;;;;;;;18.22;27.74;100826.53;4400758;32;19963;-49
2021/04/08 09:16:21;;;;;;;;;;;;;;;18.14;27.81;100833.31;4398909;32;20004;-51
2021/04/08 09:18:47;;;;;;;;;;;;;;;18.25;27.67;100827.50;4400966;32;19954;-52
2021/04/08 09:21:13;;;;;;;;;;;;;;;18.28;27.77;100831.06;4399874;32;20011;-46
2021/04/08 09:23:39;;;;;;;;;;;;;;;18.29;27.72;100828.50;4401930;32;19958;-49
2021/04/08 09:26:05;;;;;;;;;;;;;;;18.33;27.64;100835.62;4400586;32;20001;-49
2021/04/08 09:28:32;;;;;;;;;;;;;;;18.36;27.59;100837.47;4398179;32;19958;-46
2021/04/08 09:31:04;;;;;;;;;;;;;;;18.36;27.54;100835.72;4400031;32;20325;-55
2021/04/08 09:33:29;;;;;;;;;;;;;;;18.29;27.72;100833.78;4406311;32;20299;-49
2021/04/08 09:35:55;;;;;;;;;;;;;;;18.26;27.77;100834.56;4405457;32;19993;-51
2021/04/08 09:38:22;;;;;;;;;;;;;;;18.32;27.66;100833.84;4414805;32;19958;-49
2021/04/08 09:40:48;;;;;;;;;;;;;;;18.28;27.68;100828.44;4415513;32;20317;-49
2021/04/08 09:43:13;;;;;;;;;;;;;;;18.30;27.80;100837.28;4408864;32;19955;-50
2021/04/08 09:45:39;;;;;;;;;;;;;;;18.33;27.78;100834.72;4396736;32;19988;-53
2021/04/08 09:48:06;;;;;;;;;;;;;;;18.36;27.64;100819.87;4391987;32;19986;-54
2021/04/08 09:50:32;;;;;;;;;;;;;;;18.44;27.52;100820.09;4404517;32;20023;-55
2021/04/08 09:52:58;;;;;;;;;;;;;;;18.51;27.41;100823.78;4414296;32;19992;-51
2021/04/08 09:55:23;;;;;;;;;;;;;;;18.52;27.37;100820.31;4414235;32;20049;-53
2021/04/08 09:57:49;;;;;;;;;;;;;;;18.30;27.51;100809.19;4413372;32;19993;-47
2021/04/08 10:00:16;;;;;;;;;;;;;;;17.83;28.28;100813.09;4412679;32;19958;-55
2021/04/08 10:02:42;;;;;;;;;;;;;;;18.07;28.25;100812.06;4414387;32;19963;-56
2021/04/08 10:05:08;;;;;;;;;;;;;;;18.15;28.22;100808.72;4413860;32;20001;-55
2021/04/08 10:07:34;;;;;;;;;;;;;;;18.27;28.19;100801.16;4413706;32;19990;-52
2021/04/08 10:10:00;;;;;;;;;;;;;;;18.19;28.18;100800.97;4415298;32;19958;-52
2021/04/08 10:12:26;;;;;;;;;;;;;;;18.35;28.01;100809.31;4412762;32;20327;-54
2021/04/08 10:14:52;;;;;;;;;;;;;;;18.52;27.61;100802.75;4414639;32;19994;-54
2021/04/08 10:17:18;;;;;;;;;;;;;;;18.54;27.41;100798.41;4412121;32;19961;-56
2021/04/08 10:19:44;;;;;;;;;;;;;;;18.51;27.40;100800.97;4412965;32;19997;-54
2021/04/08 10:22:09;;;;;;;;;;;;;;;18.45;27.43;100799.91;4413849;32;19942;-52
2021/04/08 10:24:35;;;;;;;;;;;;;;;18.38;27.43;100796.22;4415760;32;20016;-57
2021/04/08 10:27:01;;;;;;;;;;;;;;;18.36;27.46;100790.00;4416515;32;20401;-51
2021/04/08 10:29:27;;;;;;;;;;;;;;;18.37;27.47;100794.44;4416072;32;20401;-52
2021/04/08 10:31:53;;;;;;;;;;;;;;;18.36;27.38;100796.16;4415066;32;20003;-55
2021/04/08 10:34:20;;;;;;;;;;;;;;;18.34;27.40;100794.34;4415242;32;19973;-54
2021/04/08 10:36:46;;;;;;;;;;;;;;;18.33;27.38;100792.53;4416691;32;19950;-52
2021/04/08 10:39:12;;;;;;;;;;;;;;;18.32;27.36;100793.37;4414549;32;19949;-50
2021/04/08 10:41:38;;;;;;;;;;;;;;;18.32;27.31;100796.94;4413198;32;19962;-56
2021/04/08 10:44:04;;;;;;;;;;;;;;;18.30;27.32;100792.47;4415378;32;20359;-53
2021/04/08 10:46:30;;;;;;;;;;;;;;;18.30;27.30;100795.09;4414473;32;20007;-53
2021/04/08 10:48:56;;;;;;;;;;;;;;;18.31;27.26;100794.25;4413143;32;20004;-54
2021/04/08 10:51:21;;;;;;;;;;;;;;;18.28;27.29;100788.91;4413836;32;20012;-53
2021/04/08 10:53:47;;;;;;;;;;;;;;;18.28;27.28;100788.91;4414759;32;20018;-51
2021/04/08 10:56:14;;;;;;;;;;;;;;;18.29;27.27;100793.31;4414073;32;20378;-56
2021/04/08 10:58:40;;;;;;;;;;;;;;;18.29;27.26;100788.03;4415101;32;19993;-50
2021/04/08 11:01:06;;;;;;;;;;;;;;;18.31;27.23;100783.69;4401926;32;19973;-55
2021/04/08 11:03:32;;;;;;;;;;;;;;;18.30;27.25;100777.56;4398889;32;20005;-54
2021/04/08 11:05:58;;;;;;;;;;;;;;;18.31;27.21;100778.44;4396734;32;20276;-52
2021/04/08 11:08:24;;;;;;;;;;;;;;;18.33;27.21;100787.25;4407710;32;19946;-53
2021/04/08 11:10:50;;;;;;;;;;;;;;;18.34;27.14;100779.41;4415165;32;19973;-53
2021/04/08 11:13:16;;;;;;;;;;;;;;;18.36;27.13;100782.09;4412799;32;20039;-51
2021/04/08 11:15:45;;;;;;;;;;;;;;;18.36;27.13;100784.75;4413827;32;20066;-55
2021/04/08 11:18:11;;;;;;;;;;;;;;;18.34;27.18;100784.69;4413288;32;19961;-54
2021/04/08 11:20:37;;;;;;;;;;;;;;;18.38;27.12;100785.66;4413014;32;19987;-50
2021/04/08 11:23:03;;;;;;;;;;;;;;;18.38;27.09;100780.41;4412095;32;19954;-53
2021/04/08 11:25:29;;;;;;;;;;;;;;;18.39;27.10;100777.78;4412885;32;20758;-55
2021/04/08 11:27:55;;;;;;;;;;;;;;;18.40;27.23;100778.69;4414922;32;19964;-49
2021/04/08 11:30:21;;;;;;;;;;;;;;;18.40;27.14;100776.03;4413790;32;20428;-56
2021/04/08 11:32:47;;;;;;;;;;;;;;;18.39;27.21;100776.91;4413285;32;20694;-51
2021/04/08 11:35:12;;;;;;;;;;;;;;;18.40;27.28;100778.69;4415135;32;20008;-54
2021/04/08 11:37:38;;;;;;;;;;;;;;;18.41;27.20;100769.91;4414354;32;20306;-51
2021/04/08 11:40:04;;;;;;;;;;;;;;;18.43;27.23;100762.94;4414889;32;19973;-53
2021/04/08 11:42:30;;;;;;;;;;;;;;;18.46;27.18;100768.31;4413376;32;19969;-53
2021/04/08 11:44:56;;;;;;;;;;;;;;;18.47;27.19;100770.09;4413817;32;19970;-54
2021/04/08 11:47:22;;;;;;;;;;;;;;;18.51;27.24;100761.41;4412482;32;20005;-49
2021/04/08 11:49:48;;;;;;;;;;;;;;;18.54;27.08;100763.25;4413348;32;19982;-53
2021/04/08 11:52:14;;;;;;;;;;;;;;;18.63;26.89;100766.09;4412735;32;19973;-54
2021/04/08 11:54:40;;;;;;;;;;;;;;;18.61;26.95;100761.66;4415005;32;19958;-47
2021/04/08 11:57:06;;;;;;;;;;;;;;;18.61;27.02;100759.00;4414708;32;19987;-52
2021/04/08 11:59:32;;;;;;;;;;;;;;;18.59;26.98;100753.69;4415127;32;19969;-53
2021/04/08 12:01:58;;;;;;;;;;;;;;;18.64;27.05;100756.44;4413676;32;19972;-57
2021/04/08 12:04:24;;;;;;;;;;;;;;;18.63;27.04;100759.94;4414188;32;19954;-52
2021/04/08 12:06:50;;;;;;;;;;;;;;;18.66;26.92;100754.72;4409895;32;19950;-56
2021/04/08 12:09:16;;;;;;;;;;;;;;;18.72;26.89;100757.53;4397801;32;19963;-52
2021/04/08 12:11:42;;;;;;;;;;;;;;;18.74;26.89;100753.19;4407942;32;20318;-54
2021/04/08 12:14:08;;;;;;;;;;;;;;;18.72;26.98;100749.63;4411403;32;19958;-54
2021/04/08 12:16:34;;;;;;;;;;;;;;;18.69;26.93;100754.81;4411071;32;19962;-54
2021/04/08 12:19:00;;;;;;;;;;;;;;;18.65;27.06;100748.59;4414275;32;19958;-54
2021/04/08 12:21:26;;;;;;;;;;;;;;;18.69;27.02;100749.53;4414127;32;19990;-53
2021/04/08 12:23:52;;;;;;;;;;;;;;;18.75;27.05;100747.06;4414595;32;19968;-53
2021/04/08 12:26:18;;;;;;;;;;;;;;;18.78;26.86;100735.69;4412665;32;19969;-55
2021/04/08 12:28:44;;;;;;;;;;;;;;;18.74;27.02;100732.09;4413196;32;20386;-53